EUE weather

Eureka Airport
Eureka, Nevada, United States

Public forecast

Using degrees Fahrenheit for public forecast. Weather courtesy of forecast.io.

Current aviation weather report (METAR) for Eureka Airport

Retrieved UTC (0 seconds ago):

Closest aviation forecast (TAF) to Eureka Airport

Closest forecast is Ely Airport Yelland Field, 56.9 nm (105.4 km) ESE. Retrieved 2019/11/19 18:54 UTC (32 minutes ago):

TAF KELY 191753Z 1918/2018 19010G20KT P6SM BKN250 FM200000 18011KT P6SM BKN100 OVC200 FM200300 18015KT P6SM VCSH BKN070 OVC140 FM200900 12012KT P6SM -SHRA BKN050 OVC100